Time;durP1;ratioP1;P1;durP2;ratioP2;P2;SDS_P1;SDS_P2;PMS_P1;PMS_P2;Temp;Humidity;BMP_temperature;BMP_pressure;BME280_temperature;BME280_humidity;BME280_pressure;Samples;Min_cycle;Max_cycle;Signal;HPM_P1;HPM_P2
2023/08/06 00:01:47;;;;;;;12.60;5.20;;;;;;;14.79;100.00;100060.20;106370;1260;72408;-73
2023/08/06 00:04:14;;;;;;;12.90;5.30;;;;;;;14.81;100.00;100058.34;106641;1258;61258;-73
2023/08/06 00:06:44;;;;;;;14.00;5.80;;;;;;;14.82;100.00;100062.89;106204;1261;61136;-73
2023/08/06 00:09:11;;;;;;;12.80;5.50;;;;;;;14.85;100.00;100055.30;105984;1260;74777;-74
2023/08/06 00:11:38;;;;;;;13.20;5.60;;;;;;;14.86;100.00;100054.44;106031;1257;70412;-76
2023/08/06 00:14:05;;;;;;;14.00;5.70;;;;;;;14.86;100.00;100052.16;106448;1257;71910;-74
2023/08/06 00:16:31;;;;;;;13.10;5.70;;;;;;;14.88;100.00;100047.64;106065;1256;61793;-74
2023/08/06 00:18:58;;;;;;;14.80;6.00;;;;;;;14.89;100.00;100043.23;106199;1257;61764;-74
2023/08/06 00:21:25;;;;;;;14.20;6.30;;;;;;;14.88;100.00;100039.82;108453;1256;74709;-74
2023/08/06 00:23:52;;;;;;;14.20;6.00;;;;;;;14.88;100.00;100032.35;108744;1257;69684;-74
2023/08/06 00:26:19;;;;;;;12.40;6.40;;;;;;;14.90;100.00;100024.61;108846;1257;72525;-74
2023/08/06 00:28:46;;;;;;;14.50;6.80;;;;;;;14.93;100.00;100026.73;108762;1257;60747;-75
2023/08/06 00:31:13;;;;;;;14.40;6.50;;;;;;;14.95;100.00;100019.31;108826;1258;60055;-74
2023/08/06 00:33:40;;;;;;;15.30;6.60;;;;;;;14.96;100.00;100023.77;108856;1257;73493;-74
2023/08/06 00:36:07;;;;;;;15.00;6.10;;;;;;;14.96;100.00;100020.00;107579;1257;69970;-75
2023/08/06 00:38:33;;;;;;;12.70;6.50;;;;;;;14.97;100.00;100017.61;106174;1257;71512;-75
2023/08/06 00:41:00;;;;;;;14.90;6.50;;;;;;;14.93;100.00;100012.42;105860;1258;62073;-74
2023/08/06 00:43:27;;;;;;;15.40;7.10;;;;;;;14.93;100.00;100000.55;105889;1262;61811;-75
2023/08/06 00:45:54;;;;;;;20.60;7.30;;;;;;;14.93;100.00;99995.16;106356;1261;73509;-75
2023/08/06 00:48:21;;;;;;;15.10;7.10;;;;;;;14.95;100.00;99992.18;106034;1257;71165;-73
2023/08/06 00:50:49;;;;;;;19.90;8.00;;;;;;;14.93;100.00;99988.23;106015;1257;70805;-74
2023/08/06 00:53:15;;;;;;;16.10;7.40;;;;;;;14.92;100.00;99979.45;105914;1258;61334;-75
2023/08/06 00:55:44;;;;;;;16.90;7.40;;;;;;;14.92;100.00;99971.14;105856;1261;61655;-75
2023/08/06 00:58:12;;;;;;;14.50;6.90;;;;;;;14.91;100.00;99969.89;106126;1257;73498;-74
2023/08/06 01:00:39;;;;;;;16.70;6.70;;;;;;;14.89;100.00;99969.03;106307;1258;72628;-74
2023/08/06 01:03:06;;;;;;;17.30;7.40;;;;;;;14.87;100.00;99972.71;105889;1261;72736;-74
2023/08/06 01:05:33;;;;;;;16.20;6.80;;;;;;;14.87;100.00;99970.09;106009;1257;61267;-75
2023/08/06 01:08:44;;;;;;;16.90;7.10;;;;;;;14.85;100.00;99965.98;106234;1260;61285;-74
2023/08/06 01:11:48;;;;;;;12.50;6.40;;;;;;;14.83;100.00;99962.36;106130;1257;74792;-73
2023/08/06 01:14:56;;;;;;;15.50;7.10;;;;;;;14.80;100.00;99953.43;105851;1258;71160;-73
2023/08/06 01:17:23;;;;;;;17.90;7.80;;;;;;;14.79;100.00;99947.84;105576;1264;72614;-74
2023/08/06 01:19:51;;;;;;;17.30;7.50;;;;;;;14.78;100.00;99948.77;105817;1261;61801;-74
2023/08/06 01:22:17;;;;;;;15.50;7.40;;;;;;;14.76;100.00;99952.64;106082;1257;61602;-75
2023/08/06 01:24:49;;;;;;;18.30;7.80;;;;;;;14.72;100.00;99952.06;105835;1257;73563;-73
2023/08/06 01:27:37;;;;;;;16.90;8.00;;;;;;;14.70;100.00;99953.95;105932;1262;70086;-74
2023/08/06 01:30:08;;;;;;;19.70;7.90;;;;;;;14.70;100.00;99962.41;106454;1257;72677;-75
2023/08/06 01:32:37;;;;;;;22.20;8.10;;;;;;;14.66;100.00;99953.98;107248;1257;62078;-72
2023/08/06 01:35:05;;;;;;;23.50;8.20;;;;;;;14.65;100.00;99955.92;108837;1257;59119;-72
2023/08/06 01:37:32;;;;;;;20.10;8.20;;;;;;;14.66;100.00;99950.36;108863;1256;74950;-73
2023/08/06 01:39:59;;;;;;;23.80;8.60;;;;;;;14.69;100.00;99949.06;108839;1257;71104;-72
2023/08/06 01:42:26;;;;;;;19.80;8.60;;;;;;;14.73;100.00;99941.88;108796;1257;72723;-72
2023/08/06 01:44:53;;;;;;;23.30;9.00;;;;;;;14.74;100.00;99938.04;108876;1256;60739;-72
2023/08/06 01:47:20;;;;;;;21.10;8.40;;;;;;;14.78;100.00;99935.38;108841;1257;60356;-72
2023/08/06 01:49:46;;;;;;;27.90;8.70;;;;;;;14.79;100.00;99932.94;107590;1257;74778;-72
2023/08/06 01:52:13;;;;;;;20.80;8.30;;;;;;;14.82;100.00;99931.76;105979;1263;70891;-74
2023/08/06 01:54:40;;;;;;;24.30;8.30;;;;;;;14.84;100.00;99931.09;106176;1256;72682;-74
2023/08/06 01:57:07;;;;;;;24.40;8.40;;;;;;;14.84;100.00;99930.11;105782;1258;61389;-74
2023/08/06 01:59:34;;;;;;;24.10;8.50;;;;;;;14.83;100.00;99922.23;105900;1257;61358;-73
2023/08/06 02:02:01;;;;;;;26.30;8.10;;;;;;;14.81;100.00;99918.09;106211;1257;73635;-73
2023/08/06 02:04:28;;;;;;;19.50;7.70;;;;;;;14.79;100.00;99914.09;106022;1260;71477;-73
2023/08/06 02:06:58;;;;;;;24.00;8.30;;;;;;;14.75;100.00;99911.13;106227;1257;72970;-73
2023/08/06 02:09:25;;;;;;;25.10;8.60;;;;;;;14.71;100.00;99908.89;105912;1257;61281;-73
2023/08/06 02:11:52;;;;;;;25.20;8.50;;;;;;;14.66;100.00;99908.27;106055;1260;61131;-74
2023/08/06 02:14:19;;;;;;;27.50;9.40;;;;;;;14.63;100.00;99910.85;105936;1257;74683;-74
2023/08/06 02:16:45;;;;;;;25.50;9.40;;;;;;;14.58;100.00;99912.73;106067;1257;69013;-74
2023/08/06 02:19:13;;;;;;;28.70;9.60;;;;;;;14.55;100.00;99911.48;105995;1258;71849;-74
2023/08/06 02:21:40;;;;;;;27.00;10.00;;;;;;;14.50;100.00;99909.30;105953;1255;61295;-74
2023/08/06 02:24:07;;;;;;;30.10;9.80;;;;;;;14.47;100.00;99908.63;106157;1258;61677;-73
2023/08/06 02:26:34;;;;;;;27.00;9.50;;;;;;;14.43;100.00;99904.61;105914;1260;74749;-73
2023/08/06 02:29:01;;;;;;;29.10;10.00;;;;;;;14.40;100.00;99904.19;105871;1260;70898;-73
2023/08/06 02:31:28;;;;;;;25.80;9.90;;;;;;;14.36;100.00;99907.59;105960;1257;71703;-73
2023/08/06 02:33:55;;;;;;;33.20;10.10;;;;;;;14.31;100.00;99909.52;106218;1257;61218;-74
2023/08/06 02:36:22;;;;;;;27.60;10.10;;;;;;;14.27;100.00;99908.35;106074;1257;61342;-73
2023/08/06 02:38:49;;;;;;;29.50;10.60;;;;;;;14.25;100.00;99907.52;106140;1257;73584;-73
2023/08/06 02:41:16;;;;;;;32.10;10.50;;;;;;;14.22;100.00;99904.12;106170;1261;71345;-74
2023/08/06 02:43:43;;;;;;;29.80;10.40;;;;;;;14.21;100.00;99905.20;106220;1257;72695;-75
2023/08/06 02:46:09;;;;;;;32.60;11.00;;;;;;;14.20;100.00;99906.77;106327;1258;61428;-73
2023/08/06 02:48:37;;;;;;;32.90;10.80;;;;;;;14.18;100.00;99905.59;105869;1257;61243;-73
2023/08/06 02:51:04;;;;;;;32.30;11.80;;;;;;;14.18;100.00;99900.72;106083;1257;72427;-74
2023/08/06 02:53:31;;;;;;;34.50;11.70;;;;;;;14.18;100.00;99892.42;106089;1257;70490;-74
2023/08/06 02:55:58;;;;;;;49.80;13.70;;;;;;;14.21;100.00;99886.20;105918;1257;72725;-73
2023/08/06 02:58:25;;;;;;;55.30;15.30;;;;;;;14.22;100.00;99880.01;106154;1257;62095;-73
2023/08/06 03:01:06;;;;;;;57.70;15.20;;;;;;;14.23;100.00;99871.48;105878;1257;61162;-72
2023/08/06 03:03:34;;;;;;;66.30;16.30;;;;;;;14.23;100.00;99868.04;106135;1260;74676;-74
2023/08/06 03:06:01;;;;;;;79.50;17.90;;;;;;;14.26;100.00;99864.12;106126;1257;70962;-74
2023/08/06 03:08:28;;;;;;;78.20;17.60;;;;;;;14.28;100.00;99859.35;105966;1257;72533;-74
2023/08/06 03:10:55;;;;;;;78.20;18.30;;;;;;;14.30;100.00;99856.13;105863;1261;61370;-74
2023/08/06 03:13:22;;;;;;;81.70;18.20;;;;;;;14.30;100.00;99854.84;105794;1257;61119;-74
2023/08/06 03:15:56;;;;;;;86.80;18.70;;;;;;;14.30;100.00;99852.50;106241;1258;72945;-75
2023/08/06 03:18:23;;;;;;;80.00;19.10;;;;;;;14.28;100.00;99848.52;105964;1260;70108;-76
2023/08/06 03:20:50;;;;;;;82.50;18.60;;;;;;;14.26;100.00;99850.08;106482;1258;73846;-74
2023/08/06 03:23:18;;;;;;;83.30;18.50;;;;;;;14.27;100.00;99843.17;106066;1257;62010;-77
2023/08/06 03:25:45;;;;;;;90.40;18.80;;;;;;;14.28;100.00;99835.42;106343;1256;61280;-75
2023/08/06 03:28:11;;;;;;;91.80;19.80;;;;;;;14.29;100.00;99830.31;107837;1257;72318;-72
2023/08/06 03:30:38;;;;;;;92.70;19.40;;;;;;;14.31;100.00;99823.33;107859;1257;70353;-75
2023/08/06 03:33:05;;;;;;;93.60;19.50;;;;;;;14.30;100.00;99822.30;107756;1258;72536;-73
2023/08/06 03:35:32;;;;;;;88.30;18.90;;;;;;;14.29;100.00;99816.25;106656;1256;61731;-74
2023/08/06 03:37:59;;;;;;;90.90;18.40;;;;;;;14.27;100.00;99817.86;108053;1258;61373;-73
2023/08/06 03:40:26;;;;;;;96.80;20.10;;;;;;;14.27;100.00;99820.41;106785;1257;59952;-74
2023/08/06 03:42:53;;;;;;;104.10;19.70;;;;;;;14.27;100.00;99824.67;107649;1257;69907;-74
2023/08/06 03:45:20;;;;;;;92.50;18.70;;;;;;;14.27;100.00;99829.59;107737;1256;73290;-73
2023/08/06 03:47:47;;;;;;;95.60;19.80;;;;;;;14.28;100.00;99830.93;107648;1257;61355;-75
2023/08/06 03:50:14;;;;;;;76.60;18.10;;;;;;;14.27;100.00;99827.70;107857;1257;61339;-73
2023/08/06 03:52:41;;;;;;;85.70;18.80;;;;;;;14.25;100.00;99821.48;107866;1257;73419;-74
2023/08/06 03:55:08;;;;;;;100.60;20.80;;;;;;;14.25;100.00;99820.75;107725;1257;71235;-74
2023/08/06 03:57:35;;;;;;;96.20;19.00;;;;;;;14.25;100.00;99821.37;108056;1257;71439;-74
2023/08/06 04:00:03;;;;;;;110.90;21.20;;;;;;;14.27;100.00;99823.77;107954;1257;63227;-74
2023/08/06 04:02:31;;;;;;;133.30;21.10;;;;;;;14.28;100.00;99820.64;107048;1257;61265;-74
2023/08/06 04:04:59;;;;;;;192.30;24.20;;;;;;;14.30;100.00;99817.01;105976;1257;73631;-75
2023/08/06 04:07:25;;;;;;;153.30;20.60;;;;;;;14.33;100.00;99817.51;106029;1257;71709;-77
2023/08/06 04:09:58;;;;;;;111.10;18.00;;;;;;;14.35;100.00;99814.14;106233;1257;71461;-74
2023/08/06 04:12:25;;;;;;;91.90;17.20;;;;;;;14.38;100.00;99815.48;106108;1257;61282;-75
2023/08/06 04:14:53;;;;;;;84.20;17.70;;;;;;;14.41;100.00;99814.84;105846;1258;61341;-74
2023/08/06 04:17:20;;;;;;;87.00;16.50;;;;;;;14.47;100.00;99819.97;105947;1258;74689;-75
2023/08/06 04:19:51;;;;;;;91.90;16.70;;;;;;;14.48;100.00;99815.79;106203;1257;70974;-72
2023/08/06 04:22:19;;;;;;;81.00;15.90;;;;;;;14.49;100.00;99819.35;105966;1257;71158;-74
2023/08/06 04:24:46;;;;;;;67.80;15.10;;;;;;;14.50;100.00;99824.80;105902;1260;61377;-74
2023/08/06 04:27:15;;;;;;;74.40;14.80;;;;;;;14.52;100.00;99823.42;105886;1260;61160;-72
2023/08/06 04:29:42;;;;;;;54.00;13.30;;;;;;;14.54;100.00;99823.94;106248;1259;74741;-76
2023/08/06 04:32:10;;;;;;;55.30;14.30;;;;;;;14.57;100.00;99822.22;106419;1257;68778;-74
2023/08/06 04:34:37;;;;;;;51.40;13.50;;;;;;;14.59;100.00;99814.80;106642;1257;71525;-77
2023/08/06 04:37:04;;;;;;;51.60;13.90;;;;;;;14.59;100.00;99812.41;106512;1257;62066;-73
2023/08/06 04:39:31;;;;;;;47.20;13.80;;;;;;;14.59;100.00;99815.71;106136;1257;61426;-74
2023/08/06 04:41:58;;;;;;;48.80;14.00;;;;;;;14.61;100.00;99817.97;105975;1257;74750;-73
2023/08/06 04:44:25;;;;;;;44.90;13.80;;;;;;;14.64;100.00;99817.70;105871;1257;71254;-73
2023/08/06 04:46:52;;;;;;;43.80;13.80;;;;;;;14.67;100.00;99820.82;105902;1257;72773;-73
2023/08/06 04:49:22;;;;;;;47.00;13.60;;;;;;;14.69;100.00;99817.98;106006;1257;61721;-75
2023/08/06 04:51:49;;;;;;;51.70;14.40;;;;;;;14.73;100.00;99822.40;106144;1256;227535;-74
2023/08/06 04:54:16;;;;;;;51.90;14.20;;;;;;;14.79;100.00;99824.71;106051;1257;74833;-74
2023/08/06 04:56:42;;;;;;;50.30;14.40;;;;;;;14.84;100.00;99823.50;105970;1257;69918;-71
2023/08/06 04:59:10;;;;;;;47.80;13.80;;;;;;;14.88;100.00;99818.45;106157;1258;71516;-75
2023/08/06 05:01:36;;;;;;;44.40;14.00;;;;;;;14.91;100.00;99818.16;105988;1257;62009;-75
2023/08/06 05:04:03;;;;;;;49.90;14.00;;;;;;;14.93;100.00;99815.59;106232;1257;61458;-74
2023/08/06 05:06:30;;;;;;;48.70;14.80;;;;;;;14.96;100.00;99816.74;106304;1257;72674;-74
2023/08/06 05:08:57;;;;;;;44.40;13.90;;;;;;;15.01;100.00;99813.79;106779;1257;71439;-73
2023/08/06 05:11:24;;;;;;;51.20;14.70;;;;;;;15.04;100.00;99807.84;108299;1257;72356;-74
2023/08/06 05:13:51;;;;;;;45.80;14.20;;;;;;;15.11;100.00;99808.81;106718;1257;60957;-74
2023/08/06 05:16:18;;;;;;;47.20;13.30;;;;;;;15.14;100.00;99807.09;106632;1257;61669;-75
2023/08/06 05:18:45;;;;;;;45.50;13.50;;;;;;;15.15;100.00;99806.14;106680;1257;72588;-74
2023/08/06 05:21:12;;;;;;;40.90;13.20;;;;;;;15.19;100.00;99804.44;106681;1257;71286;-73
2023/08/06 05:23:39;;;;;;;38.70;13.20;;;;;;;15.23;100.00;99805.29;105999;1261;71308;-75
2023/08/06 05:26:06;;;;;;;42.20;13.30;;;;;;;15.26;100.00;99808.41;106032;1258;60859;-74
2023/08/06 05:28:34;;;;;;;37.50;12.30;;;;;;;15.25;100.00;99809.08;105921;1257;61727;-74
2023/08/06 05:31:04;;;;;;;35.90;12.70;;;;;;;15.26;100.00;99811.36;106009;1257;73880;-74
2023/08/06 05:33:31;;;;;;;28.20;10.90;;;;;;;15.26;100.00;99807.79;105830;1261;69039;-73
2023/08/06 05:35:58;;;;;;;26.70;10.10;;;;;;;15.25;100.00;99806.41;106133;1258;71275;-76
2023/08/06 05:38:25;;;;;;;23.20;9.90;;;;;;;15.25;100.00;99805.17;105953;1257;61276;-75
2023/08/06 05:40:52;;;;;;;24.90;10.00;;;;;;;15.25;100.00;99809.20;105901;1257;61262;-74
2023/08/06 05:43:18;;;;;;;22.70;9.90;;;;;;;15.24;100.00;99807.23;105952;1257;61383;-75
2023/08/06 05:45:48;;;;;;;24.80;10.30;;;;;;;15.23;100.00;99804.59;106324;1256;70330;-75
2023/08/06 05:48:15;;;;;;;22.90;9.80;;;;;;;15.23;100.00;99810.99;105993;1258;71149;-74
2023/08/06 05:50:42;;;;;;;24.90;9.80;;;;;;;15.26;100.00;99812.05;105972;1258;62480;-74
2023/08/06 05:53:09;;;;;;;20.70;9.90;;;;;;;15.30;100.00;99811.03;106081;1257;61131;-76
2023/08/06 05:55:36;;;;;;;25.30;10.20;;;;;;;15.31;100.00;99810.14;105944;1257;72162;-75
2023/08/06 05:58:02;;;;;;;23.40;9.70;;;;;;;15.34;100.00;99813.46;106035;1257;71722;-75
2023/08/06 06:00:29;;;;;;;22.80;9.70;;;;;;;15.35;100.00;99818.91;105907;1260;71458;-74
2023/08/06 06:02:56;;;;;;;20.00;9.40;;;;;;;15.36;100.00;99819.69;106082;1258;61227;-73
2023/08/06 06:05:23;;;;;;;20.00;9.60;;;;;;;15.35;100.00;99815.34;105935;1259;61332;-73
2023/08/06 06:07:50;;;;;;;20.00;9.70;;;;;;;15.36;100.00;99810.52;106027;1258;73485;-74
2023/08/06 06:10:17;;;;;;;17.60;9.10;;;;;;;15.37;100.00;99808.96;105872;1257;69799;-73
2023/08/06 06:12:44;;;;;;;17.80;9.30;;;;;;;15.44;100.00;99811.45;105904;1261;71504;-74
2023/08/06 06:15:11;;;;;;;18.40;9.50;;;;;;;15.53;100.00;99808.88;106168;1258;61995;-75
2023/08/06 06:17:38;;;;;;;17.10;9.30;;;;;;;15.58;100.00;99804.63;106059;1258;61245;-75
2023/08/06 06:20:05;;;;;;;16.40;8.60;;;;;;;15.61;100.00;99804.26;106555;1257;73710;-72
2023/08/06 06:22:32;;;;;;;15.80;9.00;;;;;;;15.66;100.00;99805.04;106261;1258;71683;-74
2023/08/06 06:24:59;;;;;;;18.50;8.30;;;;;;;15.67;100.00;99803.05;105797;1258;71017;-73
2023/08/06 06:27:26;;;;;;;12.80;8.20;;;;;;;15.68;100.00;99805.29;105845;1257;61271;-74
2023/08/06 06:29:54;;;;;;;13.00;7.60;;;;;;;15.71;100.00;99802.70;106338;1257;61374;-75
2023/08/06 06:32:21;;;;;;;17.10;8.00;;;;;;;15.74;100.00;99798.98;105919;1257;73483;-75
2023/08/06 06:34:49;;;;;;;16.80;7.80;;;;;;;15.79;100.00;99797.25;106053;1257;70227;-74
2023/08/06 06:37:15;;;;;;;13.40;7.60;;;;;;;15.86;100.00;99796.93;106007;1261;72966;-75
2023/08/06 06:39:42;;;;;;;13.50;6.70;;;;;;;15.90;100.00;99802.52;106107;1258;62023;-75
2023/08/06 06:42:09;;;;;;;10.20;6.30;;;;;;;15.95;100.00;99793.17;106153;1257;62539;-73
2023/08/06 06:44:36;;;;;;;11.00;6.80;;;;;;;16.02;100.00;99787.23;106016;1258;74894;-74
2023/08/06 06:47:03;;;;;;;14.10;7.10;;;;;;;16.10;100.00;99782.77;106059;1259;70994;-75
2023/08/06 06:49:30;;;;;;;12.30;6.80;;;;;;;16.19;100.00;99786.27;105936;1258;71531;-75
2023/08/06 06:51:57;;;;;;;11.60;6.20;;;;;;;16.25;100.00;99788.45;108213;1256;62050;-73
2023/08/06 06:54:24;;;;;;;9.70;6.10;;;;;;;16.36;100.00;99787.92;108752;1258;60717;-73
2023/08/06 06:56:51;;;;;;;10.40;6.60;;;;;;;16.47;100.00;99790.31;108905;1257;72672;-73
2023/08/06 06:59:18;;;;;;;7.40;5.40;;;;;;;16.61;100.00;99793.48;108834;1257;70466;-75
2023/08/06 07:01:45;;;;;;;8.20;5.10;;;;;;;16.73;100.00;99787.73;108906;1257;71564;-74
2023/08/06 07:04:12;;;;;;;7.80;4.40;;;;;;;16.78;100.00;99787.44;108811;1257;61345;-73
2023/08/06 07:06:38;;;;;;;6.50;4.40;;;;;;;16.84;100.00;99782.09;108952;1257;60475;-73
2023/08/06 07:09:05;;;;;;;7.00;4.20;;;;;;;16.95;100.00;99778.31;105780;1257;73302;-72
2023/08/06 07:11:32;;;;;;;6.40;4.10;;;;;;;17.05;100.00;99779.70;106038;1257;69930;-72
2023/08/06 07:13:59;;;;;;;6.60;4.50;;;;;;;17.17;100.00;99773.79;106211;1261;71485;-76
2023/08/06 07:16:26;;;;;;;10.30;4.70;;;;;;;17.27;100.00;99773.69;105854;1256;61284;-72
2023/08/06 07:18:54;;;;;;;4.80;4.00;;;;;;;17.35;100.00;99774.05;106136;1258;61733;-73
2023/08/06 07:21:21;;;;;;;6.30;3.70;;;;;;;17.38;100.00;99776.50;108310;1257;73543;-73
2023/08/06 07:23:51;;;;;;;4.70;3.40;;;;;;;17.42;100.00;99774.82;106286;1257;69699;-72
2023/08/06 07:26:18;;;;;;;5.10;3.20;;;;;;;17.47;100.00;99772.27;105964;1259;74486;-72
2023/08/06 07:28:45;;;;;;;4.10;3.20;;;;;;;17.51;100.00;99771.76;106058;1257;62115;-71
2023/08/06 07:31:12;;;;;;;4.80;3.30;;;;;;;17.57;100.00;99772.33;106820;1258;61147;-69
2023/08/06 07:33:39;;;;;;;4.80;2.80;;;;;;;17.62;100.00;99765.44;106024;1257;73286;-72
2023/08/06 07:36:10;;;;;;;4.70;2.80;;;;;;;17.68;100.00;99764.55;106196;1257;69086;-71
2023/08/06 07:38:37;;;;;;;4.50;2.90;;;;;;;17.73;100.00;99764.09;105973;1257;72410;-70
2023/08/06 07:41:05;;;;;;;3.50;2.60;;;;;;;17.77;100.00;99759.80;105884;1258;61670;-72
2023/08/06 07:43:32;;;;;;;4.50;2.50;;;;;;;17.81;100.00;99762.24;105870;1257;61293;-70
2023/08/06 07:46:01;;;;;;;4.60;2.70;;;;;;;17.85;100.00;99764.27;106103;1257;73771;-71
2023/08/06 07:48:28;;;;;;;3.30;2.40;;;;;;;17.91;100.00;99765.69;105882;1258;69745;-72
2023/08/06 07:50:56;;;;;;;3.60;2.30;;;;;;;17.95;100.00;99769.05;105992;1263;72526;-71
2023/08/06 07:53:23;;;;;;;3.40;2.50;;;;;;;18.04;100.00;99766.46;105895;1257;61531;-71
2023/08/06 07:55:54;;;;;;;4.20;2.00;;;;;;;18.15;100.00;99769.68;106239;1257;61740;-72
2023/08/06 07:58:21;;;;;;;3.40;2.00;;;;;;;18.24;100.00;99768.94;105880;1258;74739;-71
2023/08/06 08:00:47;;;;;;;2.40;1.90;;;;;;;18.34;100.00;99767.49;105832;1257;71201;-71
2023/08/06 08:03:15;;;;;;;4.70;1.80;;;;;;;18.43;100.00;99765.09;105923;1258;72512;-71
2023/08/06 08:05:43;;;;;;;3.70;1.30;;;;;;;18.49;100.00;99765.07;106197;1257;61332;-72
2023/08/06 08:08:10;;;;;;;3.30;1.40;;;;;;;18.58;100.00;99763.71;106180;1257;61759;-69
2023/08/06 08:10:38;;;;;;;2.50;1.40;;;;;;;18.70;100.00;99765.31;106087;1258;74050;-69
2023/08/06 08:13:05;;;;;;;2.60;1.50;;;;;;;18.83;100.00;99761.34;106346;1257;70997;-70
2023/08/06 08:15:32;;;;;;;2.60;1.60;;;;;;;18.89;100.00;99761.88;106430;1256;71983;-72
2023/08/06 08:18:00;;;;;;;2.20;1.40;;;;;;;19.03;100.00;99761.76;106400;1260;61917;-72
2023/08/06 08:20:31;;;;;;;3.40;1.60;;;;;;;19.18;100.00;99762.29;106079;1257;61281;-71
2023/08/06 08:23:00;;;;;;;2.30;1.60;;;;;;;19.29;100.00;99760.67;106254;1257;74756;-71
2023/08/06 08:25:27;;;;;;;3.90;1.50;;;;;;;19.37;100.00;99758.42;106000;1257;71263;-70
2023/08/06 08:27:57;;;;;;;3.50;1.60;;;;;;;19.47;100.00;99759.70;106081;1258;72167;-70
2023/08/06 08:30:24;;;;;;;2.50;1.70;;;;;;;19.55;100.00;99758.78;105772;1257;63301;-70
2023/08/06 08:32:53;;;;;;;3.30;1.50;;;;;;;19.67;100.00;99758.46;105834;1258;62038;-70
2023/08/06 08:35:20;;;;;;;3.10;1.90;;;;;;;19.78;100.00;99758.29;105861;1261;75184;-71
2023/08/06 08:37:46;;;;;;;3.80;1.60;;;;;;;19.93;100.00;99759.77;106114;1257;69970;-70
2023/08/06 08:40:15;;;;;;;3.20;1.50;;;;;;;20.10;100.00;99749.38;106023;1258;61247;-71
2023/08/06 08:42:42;;;;;;;2.60;1.30;;;;;;;20.18;100.00;99749.96;106255;1257;61752;-71
2023/08/06 08:45:15;;;;;;;2.70;1.50;;;;;;;20.29;100.00;99746.52;106111;1257;61280;-71
2023/08/06 08:47:47;;;;;;;1.90;1.30;;;;;;;20.40;100.00;99744.30;106223;1259;73484;-72
2023/08/06 08:50:15;;;;;;;2.70;1.90;;;;;;;20.40;100.00;99738.05;106202;1256;71004;-72
2023/08/06 08:52:45;;;;;;;2.30;1.60;;;;;;;20.45;100.00;99739.42;105856;1256;71298;-71
2023/08/06 08:55:15;;;;;;;3.00;1.40;;;;;;;20.55;100.00;99735.70;105846;1256;62035;-71
2023/08/06 08:57:42;;;;;;;2.50;1.50;;;;;;;20.62;100.00;99737.56;106273;1257;61381;-71
2023/08/06 09:00:09;;;;;;;2.10;1.50;;;;;;;20.70;100.00;99738.52;105885;1258;72545;-72
2023/08/06 09:02:38;;;;;;;3.30;1.40;;;;;;;20.78;100.00;99737.02;105982;1259;71363;-71
2023/08/06 09:05:05;;;;;;;3.00;1.40;;;;;;;20.87;100.00;99737.95;105784;1261;72819;-72
2023/08/06 09:07:37;;;;;;;2.80;1.40;;;;;;;20.97;100.00;99737.92;106085;1257;62553;-72
2023/08/06 09:10:05;;;;;;;2.60;1.30;;;;;;;20.99;100.00;99735.77;105880;1257;61262;-72
2023/08/06 09:12:32;;;;;;;3.50;1.60;;;;;;;21.00;100.00;99734.09;106115;1258;74613;-71
2023/08/06 09:14:59;;;;;;;3.40;1.60;;;;;;;21.11;100.00;99736.16;105746;1258;70012;-71
2023/08/06 09:17:25;;;;;;;2.40;1.30;;;;;;;21.27;100.00;99732.55;106293;1259;71546;-71
2023/08/06 09:19:52;;;;;;;4.50;1.60;;;;;;;21.38;100.00;99733.11;106613;1258;61809;-71
2023/08/06 09:22:19;;;;;;;2.60;1.30;;;;;;;21.50;100.00;99731.67;105934;1261;61769;-71
2023/08/06 09:24:46;;;;;;;3.00;1.30;;;;;;;21.61;100.00;99733.21;105834;1259;74238;-70
2023/08/06 09:27:14;;;;;;;3.70;1.50;;;;;;;21.77;100.00;99731.38;105825;1258;69969;-72
2023/08/06 09:29:42;;;;;;;3.30;1.60;;;;;;;21.97;100.00;99729.70;106248;1257;71516;-72
2023/08/06 09:32:09;;;;;;;2.80;1.50;;;;;;;22.22;100.00;99730.06;106062;1257;61635;-72
2023/08/06 09:34:39;;;;;;;3.00;1.40;;;;;;;22.48;100.00;99726.40;106103;1257;61395;-71
2023/08/06 09:37:09;;;;;;;2.00;1.30;;;;;;;22.66;100.00;99726.70;106133;1261;74500;-73
2023/08/06 09:39:36;;;;;;;3.10;1.40;;;;;;;22.83;100.00;99729.25;106105;1257;70711;-72
2023/08/06 09:42:03;;;;;;;2.40;1.20;;;;;;;22.96;98.71;99734.84;105867;1261;72351;-72
2023/08/06 09:44:31;;;;;;;2.60;1.20;;;;;;;22.94;97.74;99734.52;105958;1259;61395;-73
2023/08/06 09:47:00;;;;;;;2.60;1.30;;;;;;;23.03;96.76;99737.24;106135;1257;61140;-71
2023/08/06 09:49:28;;;;;;;3.20;1.50;;;;;;;23.16;96.75;99735.59;106113;1257;73592;-74
2023/08/06 09:51:55;;;;;;;2.50;1.30;;;;;;;23.35;98.03;99732.00;106099;1257;70385;-72
2023/08/06 09:54:23;;;;;;;2.70;1.50;;;;;;;23.45;95.88;99728.23;106265;1257;72462;-74
2023/08/06 09:56:57;;;;;;;2.50;1.20;;;;;;;23.47;96.35;99726.91;105996;1257;63015;-71
2023/08/06 09:59:24;;;;;;;1.70;1.10;;;;;;;23.56;97.21;99728.72;106263;1258;60320;-71
2023/08/06 10:01:51;;;;;;;3.00;1.20;;;;;;;23.54;94.73;99727.92;106042;1260;74672;-71
2023/08/06 10:04:20;;;;;;;2.70;1.30;;;;;;;23.60;96.27;99724.61;105876;1257;71299;-72
2023/08/06 10:06:54;;;;;;;3.80;1.20;;;;;;;23.72;95.82;99722.49;105838;1259;71249;-72
2023/08/06 10:09:21;;;;;;;2.50;1.20;;;;;;;23.82;96.75;99722.38;106528;1261;62035;-72
2023/08/06 10:11:52;;;;;;;2.10;1.10;;;;;;;24.04;98.38;99720.36;106493;1257;61139;-73
2023/08/06 10:14:26;;;;;;;2.40;1.10;;;;;;;24.26;95.94;99719.07;106838;1257;73771;-73
2023/08/06 10:16:54;;;;;;;2.80;1.30;;;;;;;24.51;96.02;99717.34;105807;1258;70301;-74
2023/08/06 10:19:21;;;;;;;2.90;1.10;;;;;;;24.77;93.15;99711.80;106045;1259;72697;-72
2023/08/06 10:22:13;;;;;;;2.50;1.10;;;;;;;24.80;87.79;99705.06;106031;1259;62462;-71
2023/08/06 10:24:48;;;;;;;3.80;1.40;;;;;;;24.77;78.90;99702.75;106143;1261;61607;-76
2023/08/06 10:27:42;;;;;;;2.90;1.20;;;;;;;24.68;74.77;99697.92;106087;1257;73457;-71
2023/08/06 10:30:28;;;;;;;2.60;1.10;;;;;;;24.57;73.55;99696.13;105815;1257;70048;-73
2023/08/06 10:32:57;;;;;;;3.30;1.20;;;;;;;24.49;72.22;99695.01;106468;1259;72719;-72
2023/08/06 10:35:39;;;;;;;2.90;1.20;;;;;;;24.45;71.07;99690.48;106127;1259;61293;-72
2023/08/06 10:38:14;;;;;;;2.60;1.10;;;;;;;24.42;71.08;99685.57;106204;1258;61389;-72
2023/08/06 10:41:02;;;;;;;2.60;1.20;;;;;;;24.55;72.18;99683.59;106157;1258;74361;-72
2023/08/06 10:43:39;;;;;;;2.40;1.30;;;;;;;24.69;67.32;99688.42;106344;1257;71179;-72
2023/08/06 10:46:12;;;;;;;2.50;1.10;;;;;;;24.79;66.23;99684.55;106088;1259;72667;-72
2023/08/06 10:48:45;;;;;;;2.70;1.20;;;;;;;24.96;66.38;99682.16;106172;1261;61377;-72
2023/08/06 10:51:13;;;;;;;2.50;1.50;;;;;;;25.08;63.47;99682.94;106636;1262;61129;-73
2023/08/06 10:53:48;;;;;;;2.10;1.20;;;;;;;25.15;62.62;99677.94;106163;1259;74762;-71
2023/08/06 10:56:22;;;;;;;3.80;1.10;;;;;;;25.30;61.49;99670.67;106446;1256;70671;-72
2023/08/06 10:58:50;;;;;;;2.20;1.20;;;;;;;25.29;59.16;99666.99;106457;1257;71486;-73
2023/08/06 11:01:18;;;;;;;2.20;1.30;;;;;;;25.15;57.37;99673.17;106379;1257;61284;-71
2023/08/06 11:07:33;;;;;;;2.30;1.30;;;;;;;24.85;55.91;99668.60;106811;1257;73247;-71
2023/08/06 11:10:12;;;;;;;2.40;1.10;;;;;;;24.85;56.56;99658.69;106360;1262;70437;-72
2023/08/06 11:12:39;;;;;;;2.70;1.20;;;;;;;24.93;55.93;99659.21;106739;1255;71789;-72
2023/08/06 11:15:07;;;;;;;3.90;1.40;;;;;;;25.03;55.84;99663.27;106116;1261;62816;-72
2023/08/06 11:17:35;;;;;;;2.70;1.30;;;;;;;25.15;55.83;99661.66;105828;1255;61274;-72
2023/08/06 11:20:03;;;;;;;2.50;1.40;;;;;;;25.35;56.70;99655.77;105796;1255;73561;-71